Time;durP1;ratioP1;P1;durP2;ratioP2;P2;SDS_P1;SDS_P2;PMS_P1;PMS_P2;Temp;Humidity;BMP_temperature;BMP_pressure;BME280_temperature;BME280_humidity;BME280_pressure;Samples;Min_cycle;Max_cycle;Signal;HPM_P1;HPM_P2
2023/01/12 00:01:07;;;;;;;;;;;;;;;-0.28;100.00;100834.56;5549004;32;34894;-70
2023/01/12 00:04:14;;;;;;;;;;;;;;;-0.30;100.00;100829.47;5548399;32;34417;-70
2023/01/12 00:07:21;;;;;;;;;;;;;;;-0.30;100.00;100836.44;5548544;32;34111;-69
2023/01/12 00:10:29;;;;;;;;;;;;;;;-0.34;100.00;100834.94;5548055;32;34524;-70
2023/01/12 00:13:37;;;;;;;;;;;;;;;-0.36;100.00;100842.84;5566398;32;34632;-69
2023/01/12 00:16:48;;;;;;;;;;;;;;;-0.39;100.00;100850.84;5541995;32;33103;-70
2023/01/12 00:20:04;;;;;;;;;;;;;;;-0.34;100.00;100847.97;5568400;32;34972;-70
2023/01/12 00:23:11;;;;;;;;;;;;;;;-0.29;100.00;100851.16;5554388;32;35599;-69
2023/01/12 00:26:17;;;;;;;;;;;;;;;-0.25;100.00;100847.44;5568429;32;34576;-70
2023/01/12 00:29:25;;;;;;;;;;;;;;;-0.18;100.00;100851.38;5554995;32;34827;-69
2023/01/12 00:32:36;;;;;;;;;;;;;;;0.03;100.00;100844.09;5542043;32;33391;-71
2023/01/12 00:35:44;;;;;;;;;;;;;;;0.02;100.00;100838.03;5554782;32;34124;-68
2023/01/12 00:38:52;;;;;;;;;;;;;;;0.01;100.00;100828.50;5567891;32;34410;-69
2023/01/12 00:45:25;;;;;;;;;;;;;;;0.20;100.00;100842.16;5553863;32;33425;-71
2023/01/12 00:48:35;;;;;;;;;;;;;;;0.27;100.00;100837.41;5568094;32;34648;-70
2023/01/12 00:51:48;;;;;;;;;;;;;;;0.30;100.00;100845.91;5553257;32;34089;-69
2023/01/12 00:54:56;;;;;;;;;;;;;;;0.36;100.00;100855.13;5554871;32;34358;-69
2023/01/12 00:58:03;;;;;;;;;;;;;;;0.40;100.00;100856.63;5553955;32;34342;-70
2023/01/12 01:01:11;;;;;;;;;;;;;;;0.53;100.00;100848.94;5568182;32;34698;-69
2023/01/12 01:04:18;;;;;;;;;;;;;;;0.63;100.00;100847.44;5541284;32;33123;-69
2023/01/12 01:07:30;;;;;;;;;;;;;;;0.71;100.00;100846.03;5568114;32;34881;-69
2023/01/12 01:10:38;;;;;;;;;;;;;;;0.81;100.00;100857.59;5554728;32;35070;-69
2023/01/12 01:13:48;;;;;;;;;;;;;;;0.88;100.00;100871.09;5567697;32;34263;-69
2023/01/12 01:16:54;;;;;;;;;;;;;;;0.99;100.00;100867.81;5568101;32;34803;-71
2023/01/12 01:19:58;;;;;;;;;;;;;;;1.09;100.00;100877.63;5567972;32;34051;-70
2023/01/12 01:23:05;;;;;;;;;;;;;;;1.19;100.00;100872.66;5567906;32;34630;-69
2023/01/12 01:26:12;;;;;;;;;;;;;;;1.26;100.00;100876.53;5554267;32;34582;-69
2023/01/12 01:29:17;;;;;;;;;;;;;;;1.33;100.00;100885.69;5553960;32;33878;-70
2023/01/12 01:32:25;;;;;;;;;;;;;;;1.28;100.00;100891.22;5554525;32;35262;-69
2023/01/12 01:35:32;;;;;;;;;;;;;;;1.27;100.00;100888.69;5541245;32;33376;-70
2023/01/12 01:38:42;;;;;;;;;;;;;;;1.34;100.00;100892.59;5554599;32;34274;-70
2023/01/12 01:41:47;;;;;;;;;;;;;;;1.36;100.00;100897.72;5553530;32;33167;-70
2023/01/12 01:44:54;;;;;;;;;;;;;;;1.37;100.00;100895.00;5567888;32;34947;-71
2023/01/12 01:48:02;;;;;;;;;;;;;;;1.41;100.00;100899.09;5567780;32;34409;-71
2023/01/12 01:51:12;;;;;;;;;;;;;;;1.36;100.00;100898.56;5554428;32;34209;-71
2023/01/12 01:54:21;;;;;;;;;;;;;;;1.38;100.00;100894.09;5567808;32;34046;-71
2023/01/12 01:57:35;;;;;;;;;;;;;;;1.35;100.00;100876.00;5567743;32;34887;-71
2023/01/12 02:00:44;;;;;;;;;;;;;;;1.43;100.00;100876.34;5566480;32;34201;-72
2023/01/12 02:03:54;;;;;;;;;;;;;;;1.54;100.00;100886.12;5565665;32;35299;-72
2023/01/12 02:07:05;;;;;;;;;;;;;;;1.52;100.00;100891.44;5539942;32;35011;-72
2023/01/12 02:10:13;;;;;;;;;;;;;;;1.70;100.00;100889.41;5553200;32;34281;-72
2023/01/12 02:16:59;;;;;;;;;;;;;;;1.65;100.00;100889.72;5548012;32;34339;-72
2023/01/12 02:20:06;;;;;;;;;;;;;;;1.66;100.00;100896.62;5548358;32;34244;-72
2023/01/12 02:23:28;;;;;;;;;;;;;;;1.72;100.00;100890.16;5547044;32;34272;-72
2023/01/12 02:26:42;;;;;;;;;;;;;;;1.74;100.00;100896.97;5547103;32;34359;-72
2023/01/12 02:30:03;;;;;;;;;;;;;;;1.81;100.00;100892.19;5547742;32;34924;-72
2023/01/12 02:33:13;;;;;;;;;;;;;;;1.84;100.00;100899.81;5547932;32;34142;-72
2023/01/12 02:36:38;;;;;;;;;;;;;;;1.83;100.00;100884.25;5547705;32;34190;-72
2023/01/12 02:39:58;;;;;;;;;;;;;;;1.86;100.00;100886.66;5546974;32;33956;-72
2023/01/12 02:43:17;;;;;;;;;;;;;;;1.93;100.00;100885.31;5546712;32;34152;-72
2023/01/12 02:46:27;;;;;;;;;;;;;;;1.98;100.00;100885.88;5534255;32;34331;-73
2023/01/12 02:49:38;;;;;;;;;;;;;;;2.01;100.00;100890.87;5546797;32;34053;-72
2023/01/12 02:52:53;;;;;;;;;;;;;;;1.97;100.00;100878.94;5547433;32;34314;-72
2023/01/12 02:56:04;;;;;;;;;;;;;;;1.90;100.00;100880.28;5547500;32;34329;-72
2023/01/12 02:59:13;;;;;;;;;;;;;;;1.88;100.00;100871.69;5546889;32;34232;-72
2023/01/12 03:02:24;;;;;;;;;;;;;;;1.87;100.00;100867.41;5546489;32;34506;-72
2023/01/12 03:05:34;;;;;;;;;;;;;;;1.94;100.00;100863.44;5546464;32;34293;-72
2023/01/12 03:08:45;;;;;;;;;;;;;;;1.96;100.00;100867.63;5547314;32;34055;-72
2023/01/12 03:11:56;;;;;;;;;;;;;;;2.07;100.00;100866.94;5553109;32;34752;-72
2023/01/12 03:15:07;;;;;;;;;;;;;;;2.05;100.00;100874.03;5568377;32;34198;-72
2023/01/12 03:18:15;;;;;;;;;;;;;;;2.07;100.00;100865.16;5555713;32;34879;-72
2023/01/12 03:21:28;;;;;;;;;;;;;;;2.04;100.00;100869.72;5555772;32;34215;-72
2023/01/12 03:24:37;;;;;;;;;;;;;;;2.06;100.00;100853.00;5569065;32;34860;-73
2023/01/12 03:27:48;;;;;;;;;;;;;;;2.13;100.00;100858.69;5555751;32;34354;-72
2023/01/12 03:30:59;;;;;;;;;;;;;;;2.14;100.00;100853.31;5555692;32;34040;-73
2023/01/12 03:34:11;;;;;;;;;;;;;;;2.22;100.00;100854.59;5569071;32;34654;-73
2023/01/12 03:37:29;;;;;;;;;;;;;;;2.25;100.00;100850.00;5555569;32;34659;-73
2023/01/12 03:40:41;;;;;;;;;;;;;;;2.25;100.00;100851.75;5555039;32;33400;-73
2023/01/12 03:43:54;;;;;;;;;;;;;;;2.26;100.00;100856.91;5555837;32;34182;-73
2023/01/12 03:47:06;;;;;;;;;;;;;;;2.29;100.00;100855.84;5554783;32;32966;-73
2023/01/12 03:50:21;;;;;;;;;;;;;;;2.31;100.00;100857.44;5568747;32;35063;-73
2023/01/12 03:53:29;;;;;;;;;;;;;;;2.34;100.00;100859.84;5568888;32;34938;-73
2023/01/12 03:56:37;;;;;;;;;;;;;;;2.37;100.00;100853.56;5568884;32;33948;-73
2023/01/12 03:59:45;;;;;;;;;;;;;;;2.39;100.00;100851.66;5568822;32;34762;-72
2023/01/12 04:03:02;;;;;;;;;;;;;;;2.36;100.00;100854.50;5554301;32;33064;-73
2023/01/12 04:06:10;;;;;;;;;;;;;;;2.38;100.00;100850.00;5554792;32;33974;-72
2023/01/12 04:09:17;;;;;;;;;;;;;;;2.40;100.00;100848.13;5569046;32;34927;-72
2023/01/12 04:12:25;;;;;;;;;;;;;;;2.42;100.00;100848.88;5568514;32;34203;-72
2023/01/12 04:15:36;;;;;;;;;;;;;;;2.43;100.00;100853.97;5568622;32;34287;-74
2023/01/12 04:18:45;;;;;;;;;;;;;;;2.37;100.00;100845.72;5568539;32;34301;-72
2023/01/12 04:25:18;;;;;;;;;;;;;;;2.33;100.00;100854.69;5567558;32;34694;-73
2023/01/12 04:28:26;;;;;;;;;;;;;;;2.30;100.00;100849.69;5568387;31;34890;-73
2023/01/12 04:31:34;;;;;;;;;;;;;;;2.26;100.00;100850.84;5568458;32;34171;-73
2023/01/12 04:34:41;;;;;;;;;;;;;;;2.24;100.00;100857.94;5554019;32;32587;-74
2023/01/12 04:37:53;;;;;;;;;;;;;;;2.36;100.00;100852.72;5555533;32;34100;-74
2023/01/12 04:41:02;;;;;;;;;;;;;;;2.34;100.00;100856.38;5555087;32;35279;-74
2023/01/12 04:44:11;;;;;;;;;;;;;;;2.39;100.00;100846.44;5568359;32;34792;-72
2023/01/12 04:47:17;;;;;;;;;;;;;;;2.48;100.00;100841.41;5553547;32;34208;-74
2023/01/12 04:50:23;;;;;;;;;;;;;;;2.45;100.00;100840.78;5541073;32;34289;-74
2023/01/12 04:53:32;;;;;;;;;;;;;;;2.47;100.00;100854.63;5567654;32;35262;-72
2023/01/12 04:56:40;;;;;;;;;;;;;;;2.61;100.00;100857.13;5556594;32;34847;-74
2023/01/12 04:59:46;;;;;;;;;;;;;;;2.50;100.00;100857.87;5567549;32;33946;-74
2023/01/12 05:03:01;;;;;;;;;;;;;;;2.55;100.00;100868.88;5567640;32;34243;-73
2023/01/12 05:06:10;;;;;;;;;;;;;;;2.63;100.00;100865.72;5565912;32;34697;-72
2023/01/12 05:12:41;;;;;;;;;;;;;;;2.39;100.00;100865.59;5566862;32;34185;-73
2023/01/12 05:15:47;;;;;;;;;;;;;;;2.33;100.00;100868.63;5561371;31;33286;-74
2023/01/12 05:18:56;;;;;;;;;;;;;;;2.41;100.00;100873.38;5559435;32;34505;-73
2023/01/12 05:22:05;;;;;;;;;;;;;;;2.35;100.00;100871.16;5567661;32;34367;-72
2023/01/12 05:25:11;;;;;;;;;;;;;;;2.43;100.00;100874.94;5554536;32;34805;-74
2023/01/12 05:28:18;;;;;;;;;;;;;;;2.42;100.00;100875.06;5554119;32;34055;-72
2023/01/12 05:31:25;;;;;;;;;;;;;;;2.45;100.00;100869.59;5570268;31;34213;-72
2023/01/12 05:34:30;;;;;;;;;;;;;;;2.36;100.00;100878.06;5576299;31;33913;-72
2023/01/12 05:37:38;;;;;;;;;;;;;;;2.34;100.00;100880.78;5566592;32;34329;-72
2023/01/12 05:40:47;;;;;;;;;;;;;;;2.34;100.00;100885.19;5554487;32;34255;-72
2023/01/12 05:43:54;;;;;;;;;;;;;;;2.40;100.00;100885.63;5553418;32;33980;-72
2023/01/12 05:47:03;;;;;;;;;;;;;;;2.50;100.00;100880.59;5567656;32;34897;-72
2023/01/12 05:50:11;;;;;;;;;;;;;;;2.54;100.00;100885.53;5567370;32;34970;-72
2023/01/12 05:53:16;;;;;;;;;;;;;;;2.49;100.00;100884.16;5540805;32;33252;-73
2023/01/12 05:56:24;;;;;;;;;;;;;;;2.40;100.00;100877.75;5554270;32;34887;-72
2023/01/12 05:59:32;;;;;;;;;;;;;;;2.45;100.00;100869.59;5541078;32;34835;-72
2023/01/12 06:02:39;;;;;;;;;;;;;;;2.44;100.00;100879.22;5558033;32;33963;-72
2023/01/12 06:05:50;;;;;;;;;;;;;;;2.54;100.00;100888.13;5567519;32;34024;-72
2023/01/12 06:08:57;;;;;;;;;;;;;;;2.46;100.00;100885.22;5553425;32;33971;-72
2023/01/12 06:15:25;;;;;;;;;;;;;;;2.43;100.00;100876.69;5566147;32;33269;-72
2023/01/12 06:18:34;;;;;;;;;;;;;;;2.54;100.00;100882.06;5554330;32;34014;-72
2023/01/12 06:21:41;;;;;;;;;;;;;;;2.61;100.00;100883.31;5553893;32;34829;-72
2023/01/12 06:24:47;;;;;;;;;;;;;;;2.58;100.00;100883.53;5551829;32;33752;-72
2023/01/12 06:27:53;;;;;;;;;;;;;;;2.73;100.00;100886.88;5552048;32;34488;-72
2023/01/12 06:31:04;;;;;;;;;;;;;;;2.71;100.00;100902.69;5566742;32;35473;-72
2023/01/12 06:34:09;;;;;;;;;;;;;;;2.81;100.00;100908.16;5566737;32;34224;-72
2023/01/12 06:37:14;;;;;;;;;;;;;;;2.83;100.00;100895.78;5552386;32;34624;-72
2023/01/12 06:40:19;;;;;;;;;;;;;;;2.77;100.00;100906.66;5553170;32;33254;-72
2023/01/12 06:43:24;;;;;;;;;;;;;;;2.73;100.00;100906.06;5565915;32;34314;-72
2023/01/12 06:46:30;;;;;;;;;;;;;;;2.72;100.00;100914.00;5555328;32;35045;-72
2023/01/12 06:49:36;;;;;;;;;;;;;;;2.75;100.00;100925.13;5550989;32;34870;-72
2023/01/12 06:52:41;;;;;;;;;;;;;;;2.86;100.00;100922.59;5551977;32;34379;-72
2023/01/12 06:55:49;;;;;;;;;;;;;;;3.03;100.00;100929.31;5550878;32;34177;-71
2023/01/12 06:58:53;;;;;;;;;;;;;;;3.02;100.00;100932.88;5538028;32;33227;-73
2023/01/12 07:01:58;;;;;;;;;;;;;;;3.03;100.00;100937.19;5561879;32;33662;-71
2023/01/12 07:05:01;;;;;;;;;;;;;;;2.89;100.00;100940.75;5565014;32;34015;-72
2023/01/12 07:08:10;;;;;;;;;;;;;;;2.90;100.00;100937.19;5555878;31;34247;-72
2023/01/12 07:11:15;;;;;;;;;;;;;;;2.98;100.00;100944.50;5551547;32;34090;-72
2023/01/12 07:14:20;;;;;;;;;;;;;;;3.11;100.00;100949.75;5556546;32;34681;-72
2023/01/12 07:17:24;;;;;;;;;;;;;;;3.10;100.00;100948.91;5550338;32;32973;-72
2023/01/12 07:20:29;;;;;;;;;;;;;;;3.04;100.00;100957.22;5551935;32;34847;-72
2023/01/12 07:23:33;;;;;;;;;;;;;;;3.06;100.00;100950.91;5563214;32;34624;-71
2023/01/12 07:26:39;;;;;;;;;;;;;;;3.19;100.00;100950.06;5536180;32;33795;-71
2023/01/12 07:29:45;;;;;;;;;;;;;;;3.27;100.00;100953.81;5551011;32;33597;-72
2023/01/12 07:32:51;;;;;;;;;;;;;;;3.49;100.00;100953.13;5544053;32;34412;-72
2023/01/12 07:35:58;;;;;;;;;;;;;;;3.57;100.00;100958.69;5549269;32;34257;-72
2023/01/12 07:39:04;;;;;;;;;;;;;;;3.47;100.00;100955.06;5551934;32;34731;-73
2023/01/12 07:42:23;;;;;;;;;;;;;;;3.44;100.00;100960.50;5551230;32;34364;-71
2023/01/12 07:45:28;;;;;;;;;;;;;;;3.60;100.00;100957.62;5550260;32;33850;-71
2023/01/12 07:48:33;;;;;;;;;;;;;;;3.80;100.00;100970.16;5550470;32;33887;-71
2023/01/12 07:51:39;;;;;;;;;;;;;;;3.67;100.00;100966.75;5564838;32;33665;-72
2023/01/12 07:54:43;;;;;;;;;;;;;;;3.71;100.00;100976.91;5551644;32;33745;-71
2023/01/12 07:57:58;;;;;;;;;;;;;;;3.80;100.00;100970.16;5551904;32;34209;-71
2023/01/12 08:01:01;;;;;;;;;;;;;;;3.76;100.00;100977.44;5567309;32;34535;-72
2023/01/12 08:04:06;;;;;;;;;;;;;;;3.72;100.00;100975.13;5554028;32;34167;-72
2023/01/12 08:07:11;;;;;;;;;;;;;;;3.88;100.00;100978.31;5568484;32;34722;-72
2023/01/12 08:10:15;;;;;;;;;;;;;;;3.94;100.00;100977.88;5567531;31;34834;-73
2023/01/12 08:13:24;;;;;;;;;;;;;;;4.09;100.00;100976.78;5555269;32;34376;-72
2023/01/12 08:16:38;;;;;;;;;;;;;;;4.14;100.00;100977.28;5568018;32;34732;-72
2023/01/12 08:19:45;;;;;;;;;;;;;;;4.21;100.00;100981.12;5568040;32;34345;-72
2023/01/12 08:22:54;;;;;;;;;;;;;;;4.30;100.00;100990.97;5554374;32;32950;-72
2023/01/12 08:26:00;;;;;;;;;;;;;;;4.45;100.00;100983.75;5567159;32;34824;-73
2023/01/12 08:29:08;;;;;;;;;;;;;;;4.51;100.00;100978.03;5555287;32;35133;-72
2023/01/12 08:32:17;;;;;;;;;;;;;;;4.71;100.00;100976.53;5568215;32;35056;-72
2023/01/12 08:35:25;;;;;;;;;;;;;;;4.94;100.00;100980.06;5554563;32;35192;-72
2023/01/12 08:38:29;;;;;;;;;;;;;;;4.96;100.00;100978.97;5567807;32;34283;-72
2023/01/12 08:41:36;;;;;;;;;;;;;;;4.94;100.00;100987.94;5567790;32;34692;-72
2023/01/12 08:44:41;;;;;;;;;;;;;;;4.89;100.00;100985.63;5568347;32;34308;-72
2023/01/12 08:47:47;;;;;;;;;;;;;;;5.07;100.00;100983.41;5541435;32;33419;-71
2023/01/12 08:50:52;;;;;;;;;;;;;;;5.05;100.00;100980.91;5567876;32;34910;-72
2023/01/12 08:53:57;;;;;;;;;;;;;;;5.03;100.00;100974.94;5554702;32;34236;-72
2023/01/12 08:57:01;;;;;;;;;;;;;;;5.12;100.00;100987.38;5554118;32;34149;-71
2023/01/12 09:00:07;;;;;;;;;;;;;;;5.42;100.00;100981.50;5568081;32;33808;-72
2023/01/12 09:03:13;;;;;;;;;;;;;;;5.43;100.00;100980.53;5568206;32;34521;-72
2023/01/12 09:06:22;;;;;;;;;;;;;;;5.35;100.00;100982.94;5567897;32;33656;-72
2023/01/12 09:09:26;;;;;;;;;;;;;;;5.48;100.00;100977.56;5568283;32;34033;-72
2023/01/12 09:12:31;;;;;;;;;;;;;;;5.51;100.00;100985.22;5567108;32;34227;-72
2023/01/12 09:15:34;;;;;;;;;;;;;;;5.40;100.00;100988.69;5568188;32;34812;-72
2023/01/12 09:18:38;;;;;;;;;;;;;;;5.32;100.00;100995.50;5567675;32;34494;-72
2023/01/12 09:21:41;;;;;;;;;;;;;;;5.46;100.00;100984.75;5567086;32;33880;-71
2023/01/12 09:24:44;;;;;;;;;;;;;;;5.63;100.00;100987.72;5566919;32;34204;-72
2023/01/12 09:27:47;;;;;;;;;;;;;;;5.72;100.00;100986.16;5541002;32;32277;-72
2023/01/12 09:30:51;;;;;;;;;;;;;;;5.72;100.00;100991.41;5553547;32;35784;-72
2023/01/12 09:33:55;;;;;;;;;;;;;;;5.76;100.00;100987.56;5568621;32;34275;-72
2023/01/12 09:37:00;;;;;;;;;;;;;;;5.86;100.00;100992.94;5567904;32;34968;-73
2023/01/12 09:40:06;;;;;;;;;;;;;;;5.76;100.00;100994.66;5567700;32;34953;-72
2023/01/12 09:50:03;;;;;;;;;;;;;;;5.59;100.00;100980.19;5567566;32;34285;-72
2023/01/12 09:53:17;;;;;;;;;;;;;;;5.36;100.00;100983.78;5567255;32;34923;-71
2023/01/12 09:56:30;;;;;;;;;;;;;;;5.48;100.00;100983.66;5567424;32;34392;-72
2023/01/12 09:59:41;;;;;;;;;;;;;;;5.74;100.00;100976.34;5567671;32;34261;-72
2023/01/12 10:02:48;;;;;;;;;;;;;;;5.96;100.00;100967.56;5566656;32;32979;-72
2023/01/12 10:05:57;;;;;;;;;;;;;;;6.15;100.00;100965.13;5564848;32;34781;-72
2023/01/12 10:09:05;;;;;;;;;;;;;;;6.10;100.00;100977.81;5567280;32;33895;-72
2023/01/12 10:12:16;;;;;;;;;;;;;;;6.27;100.00;100968.56;5553308;32;33925;-72
2023/01/12 10:15:19;;;;;;;;;;;;;;;6.36;100.00;100967.81;5552708;32;34255;-71
2023/01/12 10:18:28;;;;;;;;;;;;;;;6.48;100.00;100970.28;5566894;32;34635;-72
2023/01/12 10:21:34;;;;;;;;;;;;;;;6.57;100.00;100978.38;5566114;32;34283;-72
2023/01/12 10:24:40;;;;;;;;;;;;;;;6.69;100.00;100958.87;5539684;32;32985;-72
2023/01/12 10:27:44;;;;;;;;;;;;;;;6.68;100.00;100960.69;5552885;32;34248;-71
2023/01/12 10:30:49;;;;;;;;;;;;;;;6.75;100.00;100968.94;5567043;32;33923;-71
2023/01/12 10:34:07;;;;;;;;;;;;;;;6.80;100.00;100964.94;5553254;32;33128;-71
2023/01/12 10:37:13;;;;;;;;;;;;;;;6.71;100.00;100960.44;5566882;32;34680;-72
2023/01/12 10:40:21;;;;;;;;;;;;;;;6.65;100.00;100962.75;5552400;32;32915;-72
2023/01/12 10:43:31;;;;;;;;;;;;;;;6.71;100.00;100956.97;5567454;32;34791;-71
2023/01/12 10:46:35;;;;;;;;;;;;;;;6.71;100.00;100951.69;5553114;32;34664;-71
2023/01/12 10:49:40;;;;;;;;;;;;;;;6.75;100.00;100953.09;5565744;32;33844;-72
2023/01/12 10:52:44;;;;;;;;;;;;;;;6.74;100.00;100949.63;5566892;32;34181;-72
2023/01/12 10:55:49;;;;;;;;;;;;;;;6.65;100.00;100947.78;5566959;32;33906;-72
2023/01/12 10:58:56;;;;;;;;;;;;;;;6.66;100.00;100938.91;5540321;32;33954;-71
2023/01/12 11:02:04;;;;;;;;;;;;;;;6.80;100.00;100945.63;5552467;32;34331;-71
2023/01/12 11:05:37;;;;;;;;;;;;;;;6.51;100.00;100938.37;5552798;32;34830;-71
2023/01/12 11:08:43;;;;;;;;;;;;;;;6.84;100.00;100933.88;5549950;32;34301;-71
2023/01/12 11:11:53;;;;;;;;;;;;;;;6.91;100.00;100935.03;5552896;32;34394;-72
2023/01/12 11:15:00;;;;;;;;;;;;;;;6.91;100.00;100937.66;5566576;32;34640;-71
2023/01/12 11:18:29;;;;;;;;;;;;;;;6.71;100.00;100923.53;5539978;32;32743;-72
2023/01/12 11:21:35;;;;;;;;;;;;;;;6.92;100.00;100918.25;5560948;32;34506;-71
2023/01/12 11:24:42;;;;;;;;;;;;;;;6.89;100.00;100919.31;5539331;32;35015;-71
2023/01/12 11:27:50;;;;;;;;;;;;;;;6.96;100.00;100907.28;5552361;32;34958;-71
2023/01/12 11:30:54;;;;;;;;;;;;;;;6.67;100.00;100916.84;5565865;32;34940;-73
2023/01/12 11:34:01;;;;;;;;;;;;;;;6.77;100.00;100922.19;5565933;32;34661;-73
2023/01/12 11:37:12;;;;;;;;;;;;;;;6.79;100.00;100910.53;5568738;32;34352;-71
2023/01/12 11:40:27;;;;;;;;;;;;;;;6.75;100.00;100913.56;5554418;32;34822;-72
2023/01/12 11:43:48;;;;;;;;;;;;;;;6.82;100.00;100917.34;5554429;32;34798;-70
2023/01/12 11:46:56;;;;;;;;;;;;;;;6.80;100.00;100909.56;5564669;32;34434;-71
2023/01/12 11:50:02;;;;;;;;;;;;;;;7.01;100.00;100903.41;5554637;32;34028;-70
2023/01/12 11:53:14;;;;;;;;;;;;;;;6.98;100.00;100897.44;5568346;32;34040;-71
2023/01/12 11:56:20;;;;;;;;;;;;;;;7.10;100.00;100902.63;5567552;32;34601;-72
2023/01/12 11:59:23;;;;;;;;;;;;;;;7.08;100.00;100897.47;5554123;32;33580;-70
2023/01/12 12:02:33;;;;;;;;;;;;;;;7.32;100.00;100903.25;5554283;32;33323;-73
2023/01/12 12:05:44;;;;;;;;;;;;;;;7.30;100.00;100901.72;5554229;32;33898;-71
2023/01/12 12:09:11;;;;;;;;;;;;;;;7.55;100.00;100898.59;5568456;32;34170;-71
2023/01/12 12:12:15;;;;;;;;;;;;;;;7.52;100.00;100898.03;5554393;32;34520;-71
2023/01/12 12:15:18;;;;;;;;;;;;;;;7.61;100.00;100895.41;5567615;31;34242;-71
2023/01/12 12:18:42;;;;;;;;;;;;;;;7.71;100.00;100901.53;5567610;32;34287;-71
2023/01/12 12:21:47;;;;;;;;;;;;;;;7.65;100.00;100891.53;5568498;32;34623;-71
2023/01/12 12:24:51;;;;;;;;;;;;;;;7.39;100.00;100891.19;5557915;32;34926;-71
2023/01/12 12:27:58;;;;;;;;;;;;;;;7.75;100.00;100883.59;5541614;32;33263;-72
2023/01/12 12:31:21;;;;;;;;;;;;;;;7.90;100.00;100884.87;5553923;32;33882;-72
2023/01/12 12:34:40;;;;;;;;;;;;;;;7.75;100.00;100884.44;5568766;32;34346;-71
2023/01/12 12:38:07;;;;;;;;;;;;;;;7.86;100.00;100880.84;5540673;32;33172;-73
2023/01/12 12:48:01;;;;;;;;;;;;;;;7.49;100.00;100878.03;5567069;32;34594;-70
2023/01/12 12:51:07;;;;;;;;;;;;;;;7.33;100.00;100881.19;5567364;32;34879;-71
2023/01/12 12:54:16;;;;;;;;;;;;;;;7.19;100.00;100881.56;5567157;32;34383;-70
2023/01/12 12:57:20;;;;;;;;;;;;;;;7.60;100.00;100879.72;5567622;32;34428;-70
2023/01/12 13:00:45;;;;;;;;;;;;;;;7.59;100.00;100876.25;5567236;32;34093;-70
2023/01/12 13:03:50;;;;;;;;;;;;;;;7.24;100.00;100871.44;5567645;32;34141;-70
2023/01/12 13:06:53;;;;;;;;;;;;;;;7.36;100.00;100878.25;5567058;32;34189;-70
2023/01/12 13:10:08;;;;;;;;;;;;;;;7.20;100.00;100862.12;5567101;32;34257;-71
2023/01/12 13:13:26;;;;;;;;;;;;;;;7.20;100.00;100872.69;5553414;32;34534;-70
2023/01/12 13:16:31;;;;;;;;;;;;;;;7.16;100.00;100873.06;5539744;32;33125;-70
2023/01/12 13:19:38;;;;;;;;;;;;;;;7.14;100.00;100873.19;5567483;32;34294;-70
2023/01/12 13:22:48;;;;;;;;;;;;;;;7.08;100.00;100857.91;5541057;32;33050;-70
2023/01/12 13:25:56;;;;;;;;;;;;;;;7.08;100.00;100860.53;5554242;32;34384;-69
2023/01/12 13:29:25;;;;;;;;;;;;;;;7.15;100.00;100866.97;5567244;32;34442;-70
2023/01/12 13:32:34;;;;;;;;;;;;;;;7.10;100.00;100858.62;5547670;32;34261;-69
2023/01/12 13:35:43;;;;;;;;;;;;;;;6.98;100.00;100868.41;5554410;32;34241;-70
2023/01/12 13:38:51;;;;;;;;;;;;;;;7.07;100.00;100864.13;5554149;32;34914;-70
2023/01/12 13:45:20;;;;;;;;;;;;;;;6.90;100.00;100878.81;5556327;32;34049;-70
2023/01/12 13:48:25;;;;;;;;;;;;;;;6.65;100.00;100876.59;5553481;32;35139;-69
2023/01/12 13:51:37;;;;;;;;;;;;;;;6.46;100.00;100882.59;5540276;32;34620;-70
2023/01/12 13:54:47;;;;;;;;;;;;;;;6.37;100.00;100879.88;5552864;32;35907;-70
2023/01/12 13:57:55;;;;;;;;;;;;;;;6.28;100.00;100884.13;5566204;32;34079;-69
2023/01/12 14:01:00;;;;;;;;;;;;;;;6.25;100.00;100873.00;5567098;32;34551;-70
2023/01/12 14:04:07;;;;;;;;;;;;;;;6.33;100.00;100874.03;5565871;32;35761;-68
2023/01/12 14:07:14;;;;;;;;;;;;;;;6.32;100.00;100875.00;5549396;32;33485;-69
2023/01/12 14:10:41;;;;;;;;;;;;;;;6.49;100.00;100879.69;5554167;32;34251;-70
2023/01/12 14:17:47;;;;;;;;;;;;;;;6.54;100.00;100876.66;5566187;32;34164;-71
2023/01/12 14:20:52;;;;;;;;;;;;;;;6.33;100.00;100871.41;5565846;32;34415;-70
2023/01/12 14:24:17;;;;;;;;;;;;;;;6.17;100.00;100875.44;5569530;31;32916;-70
2023/01/12 14:27:22;;;;;;;;;;;;;;;6.10;100.00;100872.47;5546834;32;33955;-69
2023/01/12 14:30:35;;;;;;;;;;;;;;;6.01;100.00;100865.31;5540861;32;33179;-70
2023/01/12 14:33:46;;;;;;;;;;;;;;;5.97;100.00;100864.75;5551715;32;34210;-70
2023/01/12 14:36:52;;;;;;;;;;;;;;;5.89;100.00;100864.56;5545559;32;33422;-70
2023/01/12 14:39:55;;;;;;;;;;;;;;;5.79;100.00;100858.34;5538997;31;35595;-70
2023/01/12 14:46:27;;;;;;;;;;;;;;;5.58;100.00;100853.00;5552796;32;33762;-70
2023/01/12 14:49:33;;;;;;;;;;;;;;;5.45;100.00;100843.59;5566497;32;35132;-70
2023/01/12 14:52:38;;;;;;;;;;;;;;;5.35;100.00;100850.56;5566591;32;34505;-69
2023/01/12 14:55:42;;;;;;;;;;;;;;;5.19;100.00;100850.94;5545446;32;33976;-70
2023/01/12 14:58:46;;;;;;;;;;;;;;;5.06;100.00;100845.00;5565954;32;34318;-70
2023/01/12 15:01:52;;;;;;;;;;;;;;;4.94;100.00;100846.78;5565566;32;34193;-70
2023/01/12 15:05:01;;;;;;;;;;;;;;;4.88;100.00;100839.41;5552464;32;34888;-71
2023/01/12 15:08:05;;;;;;;;;;;;;;;4.97;100.00;100840.47;5565898;32;34626;-71
2023/01/12 15:11:09;;;;;;;;;;;;;;;4.90;100.00;100841.88;5553361;32;33632;-70
2023/01/12 15:14:24;;;;;;;;;;;;;;;4.73;100.00;100844.06;5541452;32;32942;-70
2023/01/12 15:27:53;;;;;;;;;;;;;;;4.71;100.00;100847.75;5553164;32;34036;-70
2023/01/12 15:30:57;;;;;;;;;;;;;;;4.51;100.00;100851.91;5567616;32;35133;-71
2023/01/12 15:34:03;;;;;;;;;;;;;;;4.35;100.00;100844.38;5567716;32;34638;-70
2023/01/12 15:37:12;;;;;;;;;;;;;;;4.21;100.00;100838.50;5554558;32;34322;-71
2023/01/12 15:40:21;;;;;;;;;;;;;;;4.11;100.00;100840.97;5540803;32;33868;-71
2023/01/12 15:43:26;;;;;;;;;;;;;;;4.03;100.00;100840.69;5540795;32;32994;-70
2023/01/12 15:46:31;;;;;;;;;;;;;;;3.96;100.00;100836.03;5554521;32;34271;-71
2023/01/12 15:49:36;;;;;;;;;;;;;;;3.87;100.00;100848.06;5553633;32;33946;-70
2023/01/12 15:52:42;;;;;;;;;;;;;;;3.76;100.00;100861.97;5554162;32;34246;-70
2023/01/12 15:55:48;;;;;;;;;;;;;;;3.70;100.00;100861.56;5539165;32;33869;-71
2023/01/12 15:58:56;;;;;;;;;;;;;;;3.56;100.00;100859.94;5553995;31;34288;-70
2023/01/12 16:02:02;;;;;;;;;;;;;;;3.50;100.00;100860.37;5573770;31;34447;-70
2023/01/12 16:05:09;;;;;;;;;;;;;;;3.38;100.00;100854.25;5560229;31;34817;-72
2023/01/12 16:08:14;;;;;;;;;;;;;;;3.27;100.00;100855.97;5587057;31;33958;-71
2023/01/12 16:11:23;;;;;;;;;;;;;;;3.20;100.00;100857.34;5560403;31;33449;-70
2023/01/12 16:14:30;;;;;;;;;;;;;;;3.15;100.00;100870.78;5566825;32;33743;-70
2023/01/12 16:17:37;;;;;;;;;;;;;;;3.10;100.00;100861.59;5554269;32;34845;-70
2023/01/12 16:20:44;;;;;;;;;;;;;;;3.03;100.00;100863.78;5566564;32;33034;-71
2023/01/12 16:23:50;;;;;;;;;;;;;;;2.99;100.00;100871.03;5566412;32;34748;-71
2023/01/12 16:26:56;;;;;;;;;;;;;;;2.92;100.00;100864.53;5567283;32;34338;-71
2023/01/12 16:30:06;;;;;;;;;;;;;;;2.87;100.00;100864.00;5567956;32;34020;-70
2023/01/12 16:33:14;;;;;;;;;;;;;;;2.83;100.00;100870.41;5567179;32;34657;-71
2023/01/12 16:36:22;;;;;;;;;;;;;;;2.80;100.00;100869.81;5554184;32;34155;-71
2023/01/12 16:39:32;;;;;;;;;;;;;;;2.78;100.00;100866.44;5566875;32;34705;-71
2023/01/12 16:42:38;;;;;;;;;;;;;;;2.69;100.00;100865.28;5567480;32;34287;-71
2023/01/12 16:45:45;;;;;;;;;;;;;;;2.67;100.00;100868.94;5553768;32;35530;-71
2023/01/12 16:48:55;;;;;;;;;;;;;;;2.63;100.00;100878.81;5553500;32;34689;-71
2023/01/12 16:52:01;;;;;;;;;;;;;;;2.62;100.00;100869.28;5547620;32;34155;-71
2023/01/12 16:55:12;;;;;;;;;;;;;;;2.60;100.00;100877.25;5534144;32;33327;-70
2023/01/12 16:58:22;;;;;;;;;;;;;;;2.60;100.00;100865.94;5535057;32;33796;-70